createdAt,value
2017-03-05T00:00:12.299Z,94.93
2017-03-05T00:00:52.960Z,95.03
2017-03-05T00:01:33.606Z,95.03
2017-03-05T00:02:14.256Z,95.89
2017-03-05T00:02:54.925Z,95.7
2017-03-05T00:03:35.547Z,95.51
2017-03-05T00:04:16.111Z,95.51
2017-03-05T00:04:56.807Z,95.6
2017-03-05T00:05:37.402Z,95.7
2017-03-05T00:06:17.945Z,95.7
2017-03-05T00:06:58.638Z,95.89
2017-03-05T00:07:39.311Z,95.6
2017-03-05T00:08:20.983Z,95.7
2017-03-05T00:09:01.840Z,95.51
2017-03-05T00:09:42.494Z,95.79
2017-03-05T00:10:23.150Z,95.41
2017-03-05T00:11:03.780Z,95.41
2017-03-05T00:11:44.345Z,95.6
2017-03-05T00:12:25.001Z,95.98
2017-03-05T00:13:05.598Z,96.17
2017-03-05T00:13:46.192Z,95.98
2017-03-05T00:14:26.762Z,96.08
2017-03-05T00:15:07.425Z,95.6
2017-03-05T00:15:47.993Z,95.7
2017-03-05T00:16:29.620Z,95.79
2017-03-05T00:17:10.166Z,95.89
2017-03-05T00:17:51.048Z,95.98
2017-03-05T00:18:31.634Z,95.7
2017-03-05T00:19:12.344Z,95.79
2017-03-05T00:19:52.934Z,95.89
2017-03-05T00:20:33.562Z,95.98
2017-03-05T00:21:14.198Z,95.98
2017-03-05T00:21:54.858Z,95.6
2017-03-05T00:22:35.528Z,95.7
2017-03-05T00:23:19.860Z,95.7
2017-03-05T00:24:00.433Z,95.7
2017-03-05T00:24:41.034Z,95.79
2017-03-05T00:25:22.069Z,96.36
2017-03-05T00:26:02.730Z,95.98
2017-03-05T00:26:43.607Z,96.45
2017-03-05T00:27:24.279Z,95.6
2017-03-05T00:28:04.933Z,95.79
2017-03-05T00:28:45.560Z,96.55
2017-03-05T00:29:26.247Z,96.55
2017-03-05T00:30:06.915Z,96.55
2017-03-05T00:30:47.628Z,96.26
2017-03-05T00:31:28.236Z,96.55
2017-03-05T00:32:08.851Z,96.17
2017-03-05T00:32:49.544Z,96.45
2017-03-05T00:33:30.227Z,95.98
2017-03-05T00:34:10.814Z,96.45
2017-03-05T00:34:51.389Z,96.26
2017-03-05T00:35:32.006Z,96.36
2017-03-05T00:36:12.705Z,96.36
2017-03-05T00:36:53.403Z,96.26
2017-03-05T00:37:34.075Z,96.36
2017-03-05T00:38:15.738Z,96.45
2017-03-05T00:38:57.446Z,96.45
2017-03-05T00:39:38.078Z,96.45
2017-03-05T00:40:18.715Z,96.08
2017-03-05T00:40:59.386Z,96.08
2017-03-05T00:41:40.095Z,96.26
2017-03-05T00:42:21.717Z,96.36
2017-03-05T00:43:02.351Z,96.65
2017-03-05T00:43:43.007Z,96.74
2017-03-05T00:44:23.607Z,96.55
2017-03-05T00:45:04.295Z,96.74
2017-03-05T00:45:44.882Z,96.26
2017-03-05T00:46:25.522Z,96.26
2017-03-05T00:47:06.221Z,96.45
2017-03-05T00:47:46.811Z,96.55
2017-03-05T00:48:27.416Z,96.36
2017-03-05T00:49:08.019Z,96.55
2017-03-05T00:49:48.609Z,96.55
2017-03-05T00:50:30.299Z,96.55
2017-03-05T00:51:10.949Z,96.36
2017-03-05T00:51:51.603Z,96.55
2017-03-05T00:52:32.263Z,96.65
2017-03-05T00:53:12.908Z,96.36
2017-03-05T00:53:53.569Z,96.36
2017-03-05T00:54:34.251Z,96.84
2017-03-05T00:55:14.842Z,96.84
2017-03-05T00:55:55.491Z,96.84
2017-03-05T00:56:36.173Z,96.45
2017-03-05T00:57:16.863Z,96.55
2017-03-05T00:57:57.445Z,96.45
2017-03-05T00:58:38.115Z,96.55
2017-03-05T00:59:18.797Z,96.74
2017-03-05T00:59:59.352Z,96.55
2017-03-05T01:00:39.926Z,96.74
2017-03-05T01:01:20.642Z,96.45
2017-03-05T01:02:01.199Z,96.55
2017-03-05T01:02:41.900Z,96.55
2017-03-05T01:03:23.560Z,96.26
2017-03-05T01:04:04.151Z,96.36
2017-03-05T01:04:44.806Z,95.98
2017-03-05T01:05:25.496Z,96.08
2017-03-05T01:06:06.069Z,95.6
2017-03-05T01:06:46.658Z,95.75
2017-03-05T01:07:27.286Z,95.55
2017-03-05T01:08:07.889Z,95.89
2017-03-05T01:08:48.576Z,95.7
2017-03-05T01:09:29.154Z,95.17
2017-03-05T01:10:10.829Z,95.17
2017-03-05T01:10:51.536Z,95.17
2017-03-05T01:11:32.221Z,95.17
2017-03-05T01:12:12.807Z,95.08
2017-03-05T01:12:53.428Z,95.27
2017-03-05T01:13:34.037Z,94.7
2017-03-05T01:14:14.618Z,94.7
2017-03-05T01:14:55.201Z,95.36
2017-03-05T01:15:35.839Z,95.08
2017-03-05T01:16:16.455Z,95.17
2017-03-05T01:16:57.173Z,94.79
2017-03-05T01:17:37.749Z,95.08
2017-03-05T01:18:18.375Z,94.6
2017-03-05T01:18:59.059Z,94.98
2017-03-05T01:19:39.744Z,94.89
2017-03-05T01:20:20.400Z,94.7
2017-03-05T01:21:01.049Z,94.98
2017-03-05T01:21:41.707Z,94.89
2017-03-05T01:22:22.360Z,94.89
2017-03-05T01:23:03.016Z,94.42
2017-03-05T01:23:43.663Z,94.23
2017-03-05T01:24:24.253Z,94.7
2017-03-05T01:25:04.924Z,94.42
2017-03-05T01:25:45.538Z,94.42
2017-03-05T01:26:26.199Z,94.7
2017-03-05T01:27:06.879Z,94.7
2017-03-05T01:27:47.503Z,94.7
2017-03-05T01:28:28.140Z,94.7
2017-03-05T01:29:08.843Z,94.6
2017-03-05T01:29:49.497Z,94.42
2017-03-05T01:30:30.086Z,94.6
2017-03-05T01:31:10.735Z,94.23
2017-03-05T01:31:51.306Z,94.42
2017-03-05T01:32:31.917Z,94.23
2017-03-05T01:33:12.503Z,94.7
2017-03-05T01:33:53.081Z,94.79
2017-03-05T01:34:33.795Z,94.7
2017-03-05T01:35:14.467Z,94.13
2017-03-05T01:35:55.035Z,94.51
2017-03-05T01:36:35.682Z,94.7
2017-03-05T01:37:16.340Z,94.7
2017-03-05T01:37:56.935Z,94.6
2017-03-05T01:38:37.539Z,94.7
2017-03-05T01:39:18.174Z,94.79
2017-03-05T01:39:58.730Z,94.42
2017-03-05T01:40:39.377Z,94.7
2017-03-05T01:41:19.987Z,94.6
2017-03-05T01:42:00.573Z,94.42
2017-03-05T01:42:41.134Z,94.42
2017-03-05T01:43:21.788Z,94.6
2017-03-05T01:44:02.401Z,94.37
2017-03-05T01:44:43.996Z,94.65
2017-03-05T01:45:24.611Z,94.51
2017-03-05T01:46:05.238Z,94.42
2017-03-05T01:46:45.861Z,94.42
2017-03-05T01:47:26.515Z,93.89
2017-03-05T01:48:07.190Z,93.94
2017-03-05T01:48:47.849Z,93.89
2017-03-05T01:49:29.372Z,93.89
2017-03-05T01:50:10.014Z,93.89
2017-03-05T01:50:50.710Z,94.65
2017-03-05T01:51:31.291Z,93.99
2017-03-05T01:52:11.951Z,93.8
2017-03-05T01:52:52.620Z,93.99
2017-03-05T01:53:33.214Z,93.94
2017-03-05T01:54:13.783Z,93.89
2017-03-05T01:54:54.438Z,93.75
2017-03-05T01:55:36.055Z,93.7
2017-03-05T01:56:18.686Z,94.18
2017-03-05T01:56:59.301Z,94.03
2017-03-05T01:57:39.915Z,94.08
2017-03-05T01:58:20.500Z,94.03
2017-03-05T01:59:01.200Z,94.08
2017-03-05T01:59:41.770Z,94.13
2017-03-05T02:00:22.424Z,94.18
2017-03-05T02:01:03.089Z,94.18
2017-03-05T02:01:43.730Z,93.99
2017-03-05T02:02:24.384Z,94.03
2017-03-05T02:03:05.032Z,94.23
2017-03-05T02:03:45.682Z,94.08
2017-03-05T02:04:26.357Z,93.99
2017-03-05T02:05:07.040Z,94.18
2017-03-05T02:05:47.630Z,93.6
2017-03-05T02:06:28.204Z,93.8
2017-03-05T02:07:08.856Z,93.7
2017-03-05T02:07:49.539Z,94.18
2017-03-05T02:08:30.135Z,93.75
2017-03-05T02:09:10.717Z,93.8
2017-03-05T02:09:51.375Z,93.8
2017-03-05T02:10:32.012Z,93.75
2017-03-05T02:11:12.671Z,93.8
2017-03-05T02:11:53.317Z,94.08
2017-03-05T02:12:33.984Z,94.23
2017-03-05T02:13:14.627Z,93.75
2017-03-05T02:13:55.285Z,93.84
2017-03-05T02:14:35.943Z,93.84
2017-03-05T02:15:16.593Z,93.8
2017-03-05T02:15:57.245Z,93.8
2017-03-05T02:16:37.903Z,94.03
2017-03-05T02:17:18.550Z,93.7
2017-03-05T02:17:59.195Z,93.8
2017-03-05T02:18:39.853Z,93.8
2017-03-05T02:19:20.554Z,94.65
2017-03-05T02:20:01.154Z,94.42
2017-03-05T02:20:41.818Z,94.6
2017-03-05T02:21:22.458Z,94.65
2017-03-05T02:22:03.127Z,94.56
2017-03-05T02:22:44.822Z,94.74
2017-03-05T02:23:25.447Z,94.27
2017-03-05T02:24:06.125Z,94.46
2017-03-05T02:24:46.783Z,94.56
2017-03-05T02:25:27.382Z,94.18
2017-03-05T02:26:07.957Z,94.56
2017-03-05T02:26:48.642Z,94.37
2017-03-05T02:27:29.295Z,94.18
2017-03-05T02:28:09.888Z,94.37
2017-03-05T02:28:50.461Z,94.37
2017-03-05T02:29:31.107Z,94.65
2017-03-05T02:30:11.797Z,94.84
2017-03-05T02:30:52.414Z,94.93
2017-03-05T02:31:33.075Z,94.93
2017-03-05T02:32:13.723Z,94.84
2017-03-05T02:32:54.415Z,94.84
2017-03-05T02:33:35.026Z,94.56
2017-03-05T02:34:15.692Z,94.65
2017-03-05T02:34:56.343Z,94.84
2017-03-05T02:35:36.994Z,94.84
2017-03-05T02:36:17.741Z,94.46
2017-03-05T02:36:58.410Z,94.46
2017-03-05T02:37:39.061Z,94.74
2017-03-05T02:38:19.711Z,94.46
2017-03-05T02:39:00.353Z,94.93
2017-03-05T02:39:41.038Z,94.84
2017-03-05T02:40:21.606Z,94.84
2017-03-05T02:41:02.193Z,94.84
2017-03-05T02:41:42.766Z,94.65
2017-03-05T02:42:24.452Z,94.65
2017-03-05T02:43:05.145Z,94.93
2017-03-05T02:43:45.736Z,94.74
2017-03-05T02:44:26.304Z,94.84
2017-03-05T02:45:06.945Z,95.03
2017-03-05T02:45:47.613Z,94.65
2017-03-05T02:46:28.268Z,95.22
2017-03-05T02:47:08.914Z,95.22
2017-03-05T02:47:49.558Z,95.31
2017-03-05T02:48:30.243Z,94.56
2017-03-05T02:49:10.870Z,95.31
2017-03-05T02:49:51.467Z,94.74
2017-03-05T02:50:32.067Z,94.84
2017-03-05T02:51:12.636Z,94.84
2017-03-05T02:51:54.102Z,94.74
2017-03-05T02:52:34.798Z,95.31
2017-03-05T02:53:15.386Z,94.84
2017-03-05T02:53:55.983Z,94.74
2017-03-05T02:54:36.603Z,95.31
2017-03-05T02:55:17.268Z,95.31
2017-03-05T02:55:57.915Z,94.79
2017-03-05T02:56:38.563Z,94.74
2017-03-05T02:57:19.248Z,94.6
2017-03-05T02:57:59.878Z,94.84
2017-03-05T02:58:40.529Z,94.74
2017-03-05T02:59:21.182Z,94.84
2017-03-05T03:00:01.819Z,94.98
2017-03-05T03:00:42.385Z,95.22
2017-03-05T03:01:23.060Z,94.89
2017-03-05T03:02:03.677Z,94.89
2017-03-05T03:02:44.365Z,94.56
2017-03-05T03:03:24.982Z,94.6
2017-03-05T03:04:05.550Z,94.7
2017-03-05T03:04:46.184Z,95.36
2017-03-05T03:05:26.878Z,94.98
2017-03-05T03:06:07.496Z,94.7
2017-03-05T03:06:48.143Z,94.6
2017-03-05T03:07:28.810Z,94.79
2017-03-05T03:08:09.462Z,95.08
2017-03-05T03:08:50.113Z,95.65
2017-03-05T03:09:30.793Z,94.89
2017-03-05T03:10:11.462Z,95.08
2017-03-05T03:10:52.062Z,94.89
2017-03-05T03:11:32.647Z,94.79
2017-03-05T03:12:13.277Z,94.79
2017-03-05T03:12:53.957Z,95.36
2017-03-05T03:13:34.576Z,94.89
2017-03-05T03:14:15.126Z,95.17
2017-03-05T03:14:55.787Z,94.98
2017-03-05T03:15:36.377Z,95.17
2017-03-05T03:16:16.980Z,94.7
2017-03-05T03:16:57.542Z,94.7
2017-03-05T03:17:38.185Z,95.08
2017-03-05T03:18:18.773Z,95.08
2017-03-05T03:18:59.480Z,94.79
2017-03-05T03:19:40.050Z,94.79
2017-03-05T03:20:20.708Z,95.08
2017-03-05T03:21:01.397Z,94.89
2017-03-05T03:21:41.995Z,94.89
2017-03-05T03:22:22.570Z,94.98
2017-03-05T03:23:03.202Z,94.89
2017-03-05T03:23:43.813Z,94.7
2017-03-05T03:24:25.425Z,94.89
2017-03-05T03:25:05.995Z,94.98
2017-03-05T03:25:46.647Z,94.89
2017-03-05T03:26:27.307Z,94.6
2017-03-05T03:27:07.951Z,94.98
2017-03-05T03:27:49.626Z,94.89
2017-03-05T03:28:30.286Z,94.7
2017-03-05T03:29:10.938Z,94.79
2017-03-05T03:29:51.605Z,94.6
2017-03-05T03:30:32.239Z,94.89
2017-03-05T03:31:12.912Z,95.08
2017-03-05T03:31:53.543Z,94.98
2017-03-05T03:32:34.114Z,94.7
2017-03-05T03:33:14.747Z,94.98
2017-03-05T03:33:55.406Z,94.98
2017-03-05T03:34:36.061Z,94.32
2017-03-05T03:35:16.712Z,94.7
2017-03-05T03:35:57.366Z,94.42
2017-03-05T03:36:38.011Z,94.23
2017-03-05T03:37:18.668Z,94.42
2017-03-05T03:37:59.317Z,94.6
2017-03-05T03:38:39.970Z,94.42
2017-03-05T03:39:20.624Z,94.7
2017-03-05T03:40:01.277Z,94.79
2017-03-05T03:40:41.858Z,94.42
2017-03-05T03:41:22.466Z,94.51
2017-03-05T03:42:03.036Z,94.51
2017-03-05T03:42:43.704Z,94.32
2017-03-05T03:43:24.383Z,94.7
2017-03-05T03:44:05.081Z,93.94
2017-03-05T03:44:45.656Z,93.75
2017-03-05T03:45:26.290Z,94.03
2017-03-05T03:46:06.953Z,93.84
2017-03-05T03:46:47.598Z,94.23
2017-03-05T03:47:28.270Z,94.03
2017-03-05T03:48:08.923Z,94.13
2017-03-05T03:48:49.567Z,94.23
2017-03-05T03:49:30.212Z,94.13
2017-03-05T03:50:10.910Z,94.23
2017-03-05T03:50:51.608Z,94.03
2017-03-05T03:51:32.186Z,93.84
2017-03-05T03:52:12.830Z,94.13
2017-03-05T03:52:54.444Z,94.03
2017-03-05T03:53:36.056Z,94.13
2017-03-05T03:54:16.619Z,94.03
2017-03-05T03:54:57.285Z,94.03
2017-03-05T03:55:37.926Z,94.03
2017-03-05T03:56:18.591Z,93.84
2017-03-05T03:56:59.251Z,94.32
2017-03-05T03:57:39.905Z,93.56
2017-03-05T03:58:20.565Z,93.56
2017-03-05T03:59:01.205Z,93.75
2017-03-05T03:59:41.864Z,93.65
2017-03-05T04:00:22.498Z,93.75
2017-03-05T04:01:03.066Z,93.75
2017-03-05T04:01:43.698Z,93.84
2017-03-05T04:02:24.353Z,93.84
2017-03-05T04:03:05.618Z,93.84
2017-03-05T04:03:46.274Z,93.84
2017-03-05T04:04:26.924Z,93.94
2017-03-05T04:05:07.482Z,93.84
2017-03-05T04:05:48.138Z,93.84
2017-03-05T04:06:28.778Z,93.65
2017-03-05T04:07:09.351Z,94.03
2017-03-05T04:07:50.006Z,94.13
2017-03-05T04:08:30.630Z,94.13
2017-03-05T04:09:11.217Z,93.75
2017-03-05T04:09:51.841Z,93.27
2017-03-05T04:10:32.503Z,93.18
2017-03-05T04:11:13.155Z,93.37
2017-03-05T04:11:53.836Z,93.18
2017-03-05T04:12:34.479Z,93.37
2017-03-05T04:13:15.621Z,93.27
2017-03-05T04:13:56.272Z,93.46
2017-03-05T04:14:36.945Z,93.56
2017-03-05T04:15:17.590Z,93.37
2017-03-05T04:15:58.260Z,93.56
2017-03-05T04:16:38.898Z,93.56
2017-03-05T04:17:19.532Z,93.37
2017-03-05T04:18:00.190Z,93.08
2017-03-05T04:18:40.856Z,92.99
2017-03-05T04:19:21.486Z,92.9
2017-03-05T04:20:02.155Z,93.46
2017-03-05T04:20:42.832Z,93.18
2017-03-05T04:21:23.468Z,93.37
2017-03-05T04:22:04.111Z,92.99
2017-03-05T04:22:44.790Z,93.18
2017-03-05T04:23:25.413Z,93.27
2017-03-05T04:24:06.072Z,93.18
2017-03-05T04:24:46.735Z,92.99
2017-03-05T04:25:27.368Z,93.37
2017-03-05T04:26:08.039Z,93.18
2017-03-05T04:26:48.678Z,93.37
2017-03-05T04:27:29.246Z,93.37
2017-03-05T04:28:09.897Z,93.37
2017-03-05T04:28:50.546Z,93.37
2017-03-05T04:29:31.200Z,93.37
2017-03-05T04:30:11.844Z,93.37
2017-03-05T04:30:52.509Z,93.08
2017-03-05T04:31:33.153Z,93.18
2017-03-05T04:32:13.804Z,93.18
2017-03-05T04:32:54.462Z,93.18
2017-03-05T04:33:35.117Z,93.18
2017-03-05T04:34:15.777Z,92.99
2017-03-05T04:34:56.434Z,93.08
2017-03-05T04:35:37.051Z,92.99
2017-03-05T04:36:17.631Z,93.08
2017-03-05T04:36:58.279Z,93.27
2017-03-05T04:37:39.015Z,92.99
2017-03-05T04:38:19.592Z,93.18
2017-03-05T04:39:00.237Z,93.18
2017-03-05T04:39:40.973Z,93.18
2017-03-05T04:40:21.542Z,93.08
2017-03-05T04:41:02.295Z,93.27
2017-03-05T04:41:42.956Z,93.18
2017-03-05T04:42:23.612Z,93.46
2017-03-05T04:43:04.250Z,93.08
2017-03-05T04:43:44.946Z,93.37
2017-03-05T04:44:25.569Z,93.37
2017-03-05T04:45:06.195Z,92.9
2017-03-05T04:45:46.769Z,92.99
2017-03-05T04:46:27.421Z,92.61
2017-03-05T04:47:08.043Z,92.61
2017-03-05T04:47:48.603Z,92.61
2017-03-05T04:48:29.278Z,92.99
2017-03-05T04:49:09.895Z,92.8
2017-03-05T04:49:50.477Z,92.42
2017-03-05T04:50:31.137Z,92.42
2017-03-05T04:51:11.788Z,92.32
2017-03-05T04:51:52.423Z,92.61
2017-03-05T04:52:33.006Z,92.32
2017-03-05T04:53:13.647Z,92.61
2017-03-05T04:53:54.288Z,92.51
2017-03-05T04:54:34.940Z,92.51
2017-03-05T04:55:15.592Z,92.8
2017-03-05T04:55:57.295Z,92.61
2017-03-05T04:56:37.942Z,92.61
2017-03-05T04:57:18.573Z,92.61
2017-03-05T04:57:59.215Z,92.61
2017-03-05T04:58:39.896Z,92.61
2017-03-05T04:59:20.539Z,92.71
2017-03-05T05:00:01.184Z,92.61
2017-03-05T05:00:41.838Z,92.61
2017-03-05T05:01:22.490Z,92.61
2017-03-05T05:02:03.154Z,92.8
2017-03-05T05:02:43.713Z,92.51
2017-03-05T05:03:24.366Z,92.71
2017-03-05T05:04:05.012Z,92.71
2017-03-05T05:04:45.652Z,92.71
2017-03-05T05:05:26.220Z,92.71
2017-03-05T05:06:06.859Z,92.61
2017-03-05T05:06:47.431Z,92.51
2017-03-05T05:07:28.097Z,92.61
2017-03-05T05:08:08.659Z,92.61
2017-03-05T05:08:49.248Z,92.51
2017-03-05T05:09:29.815Z,92.71
2017-03-05T05:10:10.489Z,92.61
2017-03-05T05:10:51.113Z,92.99
2017-03-05T05:11:31.680Z,92.8
2017-03-05T05:12:12.350Z,92.99
2017-03-05T05:12:52.963Z,92.32
2017-03-05T05:13:33.575Z,92.51
2017-03-05T05:14:14.185Z,92.51
2017-03-05T05:14:54.818Z,92.32
2017-03-05T05:15:35.431Z,92.23
2017-03-05T05:16:16.032Z,92.42
2017-03-05T05:16:56.707Z,92.13
2017-03-05T05:17:37.354Z,92.04
2017-03-05T05:18:18.012Z,92.42
2017-03-05T05:18:58.691Z,92.32
2017-03-05T05:19:39.307Z,92.32
2017-03-05T05:20:19.902Z,92.13
2017-03-05T05:21:01.422Z,92.23
2017-03-05T05:21:41.975Z,92.23
2017-03-05T05:22:22.639Z,92.42
2017-03-05T05:23:03.220Z,92.32
2017-03-05T05:23:43.825Z,92.51
2017-03-05T05:24:24.388Z,92.42
2017-03-05T05:25:05.056Z,92.51
2017-03-05T05:25:45.700Z,92.32
2017-03-05T05:26:26.356Z,92.32
2017-03-05T05:27:07.007Z,92.23
2017-03-05T05:27:47.675Z,92.8
2017-03-05T05:28:28.319Z,92.9
2017-03-05T05:29:08.971Z,92.61
2017-03-05T05:29:49.631Z,92.8
2017-03-05T05:30:30.291Z,92.51
2017-03-05T05:31:10.928Z,92.51
2017-03-05T05:31:51.584Z,92.71
2017-03-05T05:32:32.234Z,92.32
2017-03-05T05:33:12.890Z,92.42
2017-03-05T05:33:53.538Z,92.51
2017-03-05T05:34:34.199Z,92.51
2017-03-05T05:35:14.846Z,92.61
2017-03-05T05:35:55.499Z,92.61
2017-03-05T05:36:36.155Z,92.32
2017-03-05T05:37:16.798Z,92.61
2017-03-05T05:37:57.460Z,92.32
2017-03-05T05:38:38.108Z,92.51
2017-03-05T05:39:18.676Z,92.51
2017-03-05T05:39:59.315Z,92.42
2017-03-05T05:40:39.968Z,92.42
2017-03-05T05:41:20.620Z,92.32
2017-03-05T05:42:01.291Z,92.61
2017-03-05T05:42:41.923Z,92.61
2017-03-05T05:43:22.605Z,92.51
2017-03-05T05:44:03.238Z,92.51
2017-03-05T05:44:43.883Z,92.51
2017-03-05T05:45:24.535Z,92.71
2017-03-05T05:46:05.186Z,92.42
2017-03-05T05:46:45.840Z,92.42
2017-03-05T05:47:26.489Z,92.71
2017-03-05T05:48:07.142Z,92.71
2017-03-05T05:48:47.798Z,92.71
2017-03-05T05:49:28.451Z,92.51
2017-03-05T05:50:09.101Z,92.51
2017-03-05T05:50:49.757Z,92.71
2017-03-05T05:51:30.410Z,92.8
2017-03-05T05:52:11.061Z,92.61
2017-03-05T05:52:51.716Z,92.71
2017-03-05T05:53:32.367Z,92.71
2017-03-05T05:54:13.026Z,92.9
2017-03-05T05:54:53.674Z,92.71
2017-03-05T05:55:34.266Z,92.71
2017-03-05T05:56:14.860Z,92.61
2017-03-05T05:56:55.429Z,92.8
2017-03-05T05:57:36.084Z,92.8
2017-03-05T05:58:16.774Z,92.99
2017-03-05T05:58:57.361Z,92.8
2017-03-05T05:59:37.936Z,92.99
2017-03-05T06:00:18.607Z,92.8
2017-03-05T06:00:59.219Z,92.99
2017-03-05T06:01:39.869Z,92.99
2017-03-05T06:02:20.535Z,92.9
2017-03-05T06:03:01.175Z,92.8
2017-03-05T06:03:41.847Z,92.8
2017-03-05T06:04:22.480Z,92.8
2017-03-05T06:05:03.038Z,92.8
2017-03-05T06:05:43.712Z,92.8
2017-03-05T06:06:24.356Z,92.9
2017-03-05T06:07:05.014Z,92.9
2017-03-05T06:07:45.680Z,92.61
2017-03-05T06:08:26.328Z,92.8
2017-03-05T06:09:06.913Z,92.42
2017-03-05T06:09:47.581Z,92.32
2017-03-05T06:10:28.155Z,92.42
2017-03-05T06:11:08.759Z,92.32
2017-03-05T06:11:49.392Z,92.32
2017-03-05T06:12:30.068Z,92.51
2017-03-05T06:13:10.667Z,92.32
2017-03-05T06:13:51.232Z,92.32
2017-03-05T06:14:31.888Z,92.23
2017-03-05T06:15:12.489Z,92.13
2017-03-05T06:15:53.089Z,92.13
2017-03-05T06:16:33.654Z,92.13
2017-03-05T06:17:14.292Z,92.13
2017-03-05T06:17:54.943Z,92.32
2017-03-05T06:18:36.519Z,92.32
2017-03-05T06:19:19.733Z,92.32
2017-03-05T06:20:00.452Z,92.51
2017-03-05T06:20:41.107Z,92.13
2017-03-05T06:21:21.792Z,92.04
2017-03-05T06:22:02.509Z,92.13
2017-03-05T06:22:43.156Z,92.04
2017-03-05T06:23:23.816Z,92.42
2017-03-05T06:24:04.462Z,92.42
2017-03-05T06:24:45.114Z,92.42
2017-03-05T06:25:25.798Z,92.23
2017-03-05T06:26:06.548Z,92.42
2017-03-05T06:26:47.177Z,92.42
2017-03-05T06:27:27.830Z,92.61
2017-03-05T06:28:08.486Z,91.85
2017-03-05T06:28:49.147Z,91.85
2017-03-05T06:29:29.796Z,92.04
2017-03-05T06:30:10.445Z,91.85
2017-03-05T06:30:51.094Z,92.04
2017-03-05T06:31:31.672Z,92.04
2017-03-05T06:32:12.297Z,91.85
2017-03-05T06:32:52.950Z,91.75
2017-03-05T06:33:33.498Z,91.66
2017-03-05T06:34:14.143Z,92.42
2017-03-05T06:34:54.704Z,91.85
2017-03-05T06:35:35.355Z,91.47
2017-03-05T06:36:16.009Z,91.85
2017-03-05T06:36:56.688Z,91.75
2017-03-05T06:37:37.325Z,91.66
2017-03-05T06:38:17.995Z,91.85
2017-03-05T06:38:58.645Z,91.66
2017-03-05T06:39:39.299Z,91.47
2017-03-05T06:40:20.052Z,91.28
2017-03-05T06:41:00.702Z,91.38
2017-03-05T06:41:41.379Z,91.47
2017-03-05T06:42:22.092Z,91.38
2017-03-05T06:43:02.761Z,91.56
2017-03-05T06:43:43.421Z,91.66
2017-03-05T06:44:24.070Z,91.47
2017-03-05T06:45:04.712Z,91.19
2017-03-05T06:45:48.374Z,91.47
2017-03-05T06:46:29.083Z,91.47
2017-03-05T06:47:09.653Z,91.28
2017-03-05T06:47:50.306Z,91.28
2017-03-05T06:48:30.878Z,91.09
2017-03-05T06:49:11.547Z,90.99
2017-03-05T06:49:52.257Z,90.99
2017-03-05T06:50:32.794Z,90.8
2017-03-05T06:51:13.464Z,91.19
2017-03-05T06:51:54.201Z,91.19
2017-03-05T06:52:34.780Z,90.9
2017-03-05T06:53:15.527Z,90.71
2017-03-05T06:53:56.255Z,91.28
2017-03-05T06:54:36.830Z,90.99
2017-03-05T06:55:17.487Z,90.9
2017-03-05T06:55:58.167Z,90.8
2017-03-05T06:56:38.891Z,90.8
2017-03-05T06:57:19.549Z,90.99
2017-03-05T06:58:00.196Z,90.99
2017-03-05T06:58:40.848Z,90.9
2017-03-05T06:59:21.494Z,90.85
2017-03-05T07:00:02.141Z,90.61
2017-03-05T07:00:42.855Z,90.61
2017-03-05T07:01:23.553Z,91.19
2017-03-05T07:02:04.110Z,90.9
2017-03-05T07:02:44.652Z,90.8
2017-03-05T07:03:25.322Z,90.71
2017-03-05T07:04:05.997Z,90.99
2017-03-05T07:04:47.734Z,91.13
2017-03-05T07:05:28.321Z,91.28
2017-03-05T07:06:09.056Z,90.85
2017-03-05T07:06:49.738Z,91.23
2017-03-05T07:07:30.444Z,90.37
2017-03-05T07:08:10.993Z,91.33
2017-03-05T07:08:51.672Z,90.42
2017-03-05T07:09:32.346Z,90.37
2017-03-05T07:10:13.056Z,90.75
2017-03-05T07:10:53.609Z,90.37
2017-03-05T07:11:35.245Z,90.66
2017-03-05T07:12:15.885Z,90.37
2017-03-05T07:12:56.591Z,90.56
2017-03-05T07:13:37.160Z,90.66
2017-03-05T07:14:17.790Z,90.66
2017-03-05T07:14:58.498Z,90.75
2017-03-05T07:15:39.200Z,90.75
2017-03-05T07:16:19.852Z,89.8
2017-03-05T07:17:00.609Z,90.75
2017-03-05T07:17:41.258Z,90.66
2017-03-05T07:18:21.915Z,90.37
2017-03-05T07:19:02.669Z,90
2017-03-05T07:19:44.350Z,89.9
2017-03-05T07:20:25.012Z,89.71
2017-03-05T07:21:05.653Z,90
2017-03-05T07:21:47.331Z,89.71
2017-03-05T07:22:27.986Z,90
2017-03-05T07:23:08.635Z,89.71
2017-03-05T07:23:49.286Z,89.9
2017-03-05T07:24:30.118Z,89.8
2017-03-05T07:25:10.710Z,89.71
2017-03-05T07:25:51.360Z,89.52
2017-03-05T07:26:32.008Z,89.52
2017-03-05T07:27:12.670Z,89.52
2017-03-05T07:27:53.315Z,89.61
2017-03-05T07:28:33.961Z,88.95
2017-03-05T07:29:14.617Z,88.95
2017-03-05T07:29:55.266Z,88.76
2017-03-05T07:30:35.832Z,89.23
2017-03-05T07:31:16.400Z,88.76
2017-03-05T07:31:57.135Z,89.04
2017-03-05T07:32:37.833Z,89.23
2017-03-05T07:33:18.537Z,89.04
2017-03-05T07:33:59.091Z,89.33
2017-03-05T07:34:39.745Z,89.33
2017-03-05T07:35:20.450Z,89.33
2017-03-05T07:36:01.104Z,89.14
2017-03-05T07:36:41.746Z,89.33
2017-03-05T07:37:22.403Z,89.9
2017-03-05T07:38:03.064Z,90
2017-03-05T07:38:43.701Z,90
2017-03-05T07:39:24.365Z,89.8
2017-03-05T07:40:05.037Z,89.8
2017-03-05T07:40:45.627Z,90
2017-03-05T07:41:26.281Z,90.09
2017-03-05T07:42:07.943Z,90
2017-03-05T07:42:48.507Z,89.61
2017-03-05T07:43:30.177Z,90
2017-03-05T07:44:10.927Z,89.9
2017-03-05T07:44:51.467Z,89.9
2017-03-05T07:45:32.126Z,90.09
2017-03-05T07:46:12.792Z,89.61
2017-03-05T07:46:53.448Z,89.14
2017-03-05T07:47:34.108Z,89.33
2017-03-05T07:48:14.760Z,89.42
2017-03-05T07:48:55.436Z,89.33
2017-03-05T07:49:36.166Z,89.04
2017-03-05T07:50:16.817Z,88.95
2017-03-05T07:50:57.496Z,89.28
2017-03-05T07:51:38.229Z,89.09
2017-03-05T07:52:18.883Z,88.8
2017-03-05T07:52:59.686Z,88.71
2017-03-05T07:53:40.383Z,89.18
2017-03-05T07:54:21.103Z,89
2017-03-05T07:55:01.854Z,89.18
2017-03-05T07:55:42.635Z,89.28
2017-03-05T07:56:23.333Z,88.8
2017-03-05T07:57:05.015Z,88.33
2017-03-05T07:57:45.768Z,88.61
2017-03-05T07:58:26.689Z,88.52
2017-03-05T07:59:07.356Z,88.33
2017-03-05T07:59:48.006Z,88.04
2017-03-05T08:00:28.779Z,88.04
2017-03-05T08:01:09.512Z,88.33
2017-03-05T08:01:50.292Z,88.52
2017-03-05T08:02:31.078Z,88.52
2017-03-05T08:03:11.779Z,88.42
2017-03-05T08:03:52.452Z,87.95
2017-03-05T08:04:33.192Z,88.13
2017-03-05T08:05:13.839Z,88.23
2017-03-05T08:05:54.507Z,88.23
2017-03-05T08:06:35.260Z,87.85
2017-03-05T08:07:15.909Z,88.23
2017-03-05T08:07:56.555Z,87.95
2017-03-05T08:08:37.321Z,88.04
2017-03-05T08:09:18.063Z,88.04
2017-03-05T08:09:58.817Z,88.23
2017-03-05T08:10:39.578Z,87.57
2017-03-05T08:11:20.354Z,87.66
2017-03-05T08:12:01.098Z,87.66
2017-03-05T08:12:42.241Z,87.57
2017-03-05T08:13:22.790Z,87.66
2017-03-05T08:14:03.461Z,87.09
2017-03-05T08:14:44.215Z,87.38
2017-03-05T08:15:24.993Z,87.28
2017-03-05T08:16:05.725Z,87.19
2017-03-05T08:16:46.377Z,87.47
2017-03-05T08:17:27.161Z,87.57
2017-03-05T08:18:07.885Z,86.8
2017-03-05T08:18:48.567Z,86.8
2017-03-05T08:19:29.315Z,86.99
2017-03-05T08:20:10.061Z,86.8
2017-03-05T08:20:50.837Z,87.09
2017-03-05T08:21:31.556Z,86.61
2017-03-05T08:22:13.257Z,86.71
2017-03-05T08:22:53.987Z,86.14
2017-03-05T08:23:34.665Z,86.52
2017-03-05T08:24:15.317Z,86.52
2017-03-05T08:24:55.969Z,86.33
2017-03-05T08:25:36.611Z,86.24
2017-03-05T08:26:17.261Z,86.33
2017-03-05T08:26:57.900Z,86.52
2017-03-05T08:27:38.562Z,85.86
2017-03-05T08:28:19.233Z,85.47
2017-03-05T08:28:59.860Z,85.66
2017-03-05T08:29:40.522Z,85.8
2017-03-05T08:30:21.211Z,85.8
2017-03-05T08:31:01.881Z,85.61
2017-03-05T08:31:42.489Z,85.47
2017-03-05T08:32:23.142Z,85.28
2017-03-05T08:33:03.783Z,85.24
2017-03-05T08:33:44.460Z,85.61
2017-03-05T08:34:25.109Z,85.33
2017-03-05T08:35:05.748Z,85.24
2017-03-05T08:35:46.406Z,85.24
2017-03-05T08:36:27.058Z,85.38
2017-03-05T08:37:07.719Z,85.28
2017-03-05T08:37:48.456Z,85.24
2017-03-05T08:38:29.437Z,85.52
2017-03-05T08:39:10.021Z,85.42
2017-03-05T08:39:50.668Z,85.04
2017-03-05T08:40:31.276Z,84.56
2017-03-05T08:41:11.846Z,85.04
2017-03-05T08:41:52.537Z,84.95
2017-03-05T08:42:33.120Z,84.56
2017-03-05T08:43:13.680Z,84.47
2017-03-05T08:43:54.423Z,84.38
2017-03-05T08:44:35.047Z,84.66
2017-03-05T08:45:15.610Z,84.56
2017-03-05T08:45:56.248Z,84.76
2017-03-05T08:46:36.835Z,84.56
2017-03-05T08:47:17.401Z,84.28